Time;durP1;ratioP1;P1;durP2;ratioP2;P2;SDS_P1;SDS_P2;PMS_P1;PMS_P2;Temp;Humidity;BMP_temperature;BMP_pressure;BME280_temperature;BME280_humidity;BME280_pressure;Samples;Min_cycle;Max_cycle;Signal;HPM_P1;HPM_P2
2020/12/12 00:00:50;;;;;;;;;;;;;;;4.03;67.84;93432.94;5053805;28;19925;-74
2020/12/12 00:03:15;;;;;;;;;;;;;;;3.98;67.70;93425.97;5052029;28;19921;-73
2020/12/12 00:05:41;;;;;;;;;;;;;;;3.92;67.82;93429.81;5053914;28;19927;-73
2020/12/12 00:08:06;;;;;;;;;;;;;;;3.84;67.82;93425.31;5053825;28;19924;-74
2020/12/12 00:10:32;;;;;;;;;;;;;;;3.73;68.24;93422.16;5053372;28;20003;-74
2020/12/12 00:12:57;;;;;;;;;;;;;;;3.67;68.76;93426.00;5053442;28;19939;-73
2020/12/12 00:15:22;;;;;;;;;;;;;;;3.64;68.21;93423.97;5052408;28;19920;-74
2020/12/12 00:17:47;;;;;;;;;;;;;;;3.61;68.73;93419.31;5052417;28;20011;-74
2020/12/12 00:20:14;;;;;;;;;;;;;;;3.61;68.81;93414.06;5053276;28;19916;-74
2020/12/12 00:22:39;;;;;;;;;;;;;;;3.61;68.85;93411.44;5053296;28;19970;-74
2020/12/12 00:25:05;;;;;;;;;;;;;;;3.64;68.81;93408.97;5053464;28;20007;-74
2020/12/12 00:27:30;;;;;;;;;;;;;;;3.70;68.65;93416.75;5052165;28;19916;-73
2020/12/12 00:29:55;;;;;;;;;;;;;;;3.75;68.60;93412.13;5051929;28;19928;-75
2020/12/12 00:32:21;;;;;;;;;;;;;;;3.85;68.50;93413.72;5051613;28;19987;-76
2020/12/12 00:34:46;;;;;;;;;;;;;;;3.89;67.97;93412.03;5053263;28;19994;-72
2020/12/12 00:37:11;;;;;;;;;;;;;;;3.93;68.10;93415.56;5053103;28;19921;-74
2020/12/12 00:39:36;;;;;;;;;;;;;;;3.94;67.92;93422.38;5051378;28;20278;-75
2020/12/12 00:42:01;;;;;;;;;;;;;;;3.99;67.93;93413.59;5051646;28;19924;-75
2020/12/12 00:44:27;;;;;;;;;;;;;;;4.02;67.75;93403.25;5052947;28;19917;-75
2020/12/12 00:46:53;;;;;;;;;;;;;;;4.04;67.68;93400.28;5053095;28;19917;-73
2020/12/12 00:49:18;;;;;;;;;;;;;;;4.08;67.57;93402.00;5051560;28;19917;-73
2020/12/12 00:51:43;;;;;;;;;;;;;;;4.12;67.62;93397.69;5052698;28;19917;-73
2020/12/12 00:54:09;;;;;;;;;;;;;;;4.17;67.34;93400.19;5051955;28;19923;-73
2020/12/12 00:56:34;;;;;;;;;;;;;;;4.08;66.79;93407.28;5051295;28;19917;-73
2020/12/12 00:58:59;;;;;;;;;;;;;;;4.13;67.27;93395.84;5051073;28;19927;-73
2020/12/12 01:01:24;;;;;;;;;;;;;;;4.14;66.83;93398.16;5052286;28;19917;-73
2020/12/12 01:03:49;;;;;;;;;;;;;;;4.17;67.19;93394.16;5051214;28;19963;-73
2020/12/12 01:06:16;;;;;;;;;;;;;;;4.19;67.15;93397.25;5051347;28;19967;-74
2020/12/12 01:08:42;;;;;;;;;;;;;;;4.16;67.08;93393.38;5052175;28;20400;-74
2020/12/12 01:11:08;;;;;;;;;;;;;;;4.18;67.20;93398.31;5052422;28;19996;-71
2020/12/12 01:13:33;;;;;;;;;;;;;;;4.20;66.95;93392.75;5052456;28;19924;-75
2020/12/12 01:15:59;;;;;;;;;;;;;;;4.17;67.27;93399.41;5052480;28;20397;-73
2020/12/12 01:18:24;;;;;;;;;;;;;;;4.14;67.12;93400.78;5052284;28;19920;-73
2020/12/12 01:20:49;;;;;;;;;;;;;;;4.08;67.03;93399.38;5052297;28;19917;-75
2020/12/12 01:23:15;;;;;;;;;;;;;;;4.03;67.06;93417.94;5052035;28;19947;-74
2020/12/12 01:25:40;;;;;;;;;;;;;;;3.98;67.52;93407.56;5052500;28;19956;-75
2020/12/12 01:28:05;;;;;;;;;;;;;;;3.97;67.57;93407.88;5052496;28;20146;-73
2020/12/12 01:30:30;;;;;;;;;;;;;;;3.96;67.56;93404.47;5051102;28;20624;-74
2020/12/12 01:32:56;;;;;;;;;;;;;;;3.92;67.94;93408.78;5051399;28;19920;-73
2020/12/12 01:35:21;;;;;;;;;;;;;;;3.88;67.44;93408.59;5052110;28;20004;-74
2020/12/12 01:37:46;;;;;;;;;;;;;;;3.84;67.91;93420.06;5050765;28;19924;-74
2020/12/12 01:40:12;;;;;;;;;;;;;;;3.77;68.05;93403.91;5051847;28;19924;-73
2020/12/12 01:42:37;;;;;;;;;;;;;;;3.74;68.12;93396.66;5050590;28;19920;-73
2020/12/12 01:45:03;;;;;;;;;;;;;;;3.69;68.21;93397.56;5052133;28;19920;-71
2020/12/12 01:47:29;;;;;;;;;;;;;;;3.67;68.48;93394.44;5052140;28;19943;-71
2020/12/12 01:49:54;;;;;;;;;;;;;;;3.62;68.72;93399.81;5050582;28;19917;-71
2020/12/12 01:52:21;;;;;;;;;;;;;;;3.59;68.70;93393.34;5051815;28;19917;-71
2020/12/12 01:54:47;;;;;;;;;;;;;;;3.62;69.30;93394.56;5050563;28;19928;-71
2020/12/12 01:57:13;;;;;;;;;;;;;;;3.65;68.84;93391.34;5051938;28;19921;-71
2020/12/12 01:59:38;;;;;;;;;;;;;;;3.69;68.68;93389.66;5051796;28;20357;-72
2020/12/12 02:02:06;;;;;;;;;;;;;;;3.73;68.94;93395.84;5051202;28;19916;-71
2020/12/12 02:04:34;;;;;;;;;;;;;;;3.73;68.99;93389.81;5052008;28;19920;-72
2020/12/12 02:06:59;;;;;;;;;;;;;;;3.74;69.00;93389.53;5053561;28;19913;-71
2020/12/12 02:09:24;;;;;;;;;;;;;;;3.74;69.06;93378.25;5055848;28;20015;-72
2020/12/12 02:11:50;;;;;;;;;;;;;;;3.75;68.71;93377.16;5055771;28;19948;-71
2020/12/12 02:14:15;;;;;;;;;;;;;;;3.76;68.96;93373.44;5055855;28;19925;-71
2020/12/12 02:16:51;;;;;;;;;;;;;;;3.77;68.69;93370.50;5055888;28;19969;-74
2020/12/12 02:19:16;;;;;;;;;;;;;;;3.77;68.97;93367.09;5055409;28;19974;-71
2020/12/12 02:21:41;;;;;;;;;;;;;;;3.79;68.86;93370.22;5054216;28;19921;-71
2020/12/12 02:24:07;;;;;;;;;;;;;;;3.77;68.56;93369.72;5054137;28;20003;-71
2020/12/12 02:26:32;;;;;;;;;;;;;;;3.79;68.70;93373.63;5054445;28;19916;-72
2020/12/12 02:28:57;;;;;;;;;;;;;;;3.83;68.77;93368.50;5054445;28;19917;-73
2020/12/12 02:31:25;;;;;;;;;;;;;;;3.81;68.92;93365.41;5055163;28;20274;-72
2020/12/12 02:33:51;;;;;;;;;;;;;;;3.83;68.89;93369.28;5055193;28;20428;-73
2020/12/12 02:36:16;;;;;;;;;;;;;;;3.82;68.83;93361.69;5054067;28;19920;-72
2020/12/12 02:38:41;;;;;;;;;;;;;;;3.73;68.97;93366.94;5055325;28;19916;-72
2020/12/12 02:41:07;;;;;;;;;;;;;;;3.80;68.92;93363.88;5054063;28;19963;-70
2020/12/12 02:43:33;;;;;;;;;;;;;;;3.79;69.08;93363.09;5053848;28;19917;-72
2020/12/12 02:45:58;;;;;;;;;;;;;;;3.81;68.94;93347.00;5055299;28;20007;-72
2020/12/12 02:48:23;;;;;;;;;;;;;;;3.81;69.03;93349.63;5055062;28;19917;-72
2020/12/12 02:50:48;;;;;;;;;;;;;;;3.88;69.27;93345.47;5053826;28;19916;-71
2020/12/12 02:53:13;;;;;;;;;;;;;;;3.86;68.91;93352.91;5053761;28;19916;-72
2020/12/12 02:55:39;;;;;;;;;;;;;;;3.86;68.45;93357.41;5055162;28;19916;-72
2020/12/12 02:58:04;;;;;;;;;;;;;;;3.83;68.91;93358.00;5054942;28;19940;-72
2020/12/12 03:00:29;;;;;;;;;;;;;;;3.94;68.89;93359.25;5054662;28;19924;-72
2020/12/12 03:02:54;;;;;;;;;;;;;;;4.06;68.45;93363.94;5052912;28;19917;-72
2020/12/12 03:05:20;;;;;;;;;;;;;;;4.15;68.19;93364.75;5054641;28;20295;-72
2020/12/12 03:07:45;;;;;;;;;;;;;;;4.12;67.94;93360.09;5052613;28;19917;-70
2020/12/12 03:10:11;;;;;;;;;;;;;;;4.15;67.63;93360.25;5052704;28;20378;-72
2020/12/12 03:12:37;;;;;;;;;;;;;;;4.17;67.75;93367.84;5054659;28;20366;-72
2020/12/12 03:15:03;;;;;;;;;;;;;;;4.25;67.64;93359.19;5054630;28;20289;-73
2020/12/12 03:17:29;;;;;;;;;;;;;;;4.26;67.64;93362.59;5053782;28;19924;-71
2020/12/12 03:19:54;;;;;;;;;;;;;;;4.31;67.56;93357.19;5054256;28;19917;-72
2020/12/12 03:22:20;;;;;;;;;;;;;;;4.30;67.31;93359.06;5054344;28;19921;-72
2020/12/12 03:24:46;;;;;;;;;;;;;;;4.34;67.12;93352.06;5054454;28;19971;-72
2020/12/12 03:27:11;;;;;;;;;;;;;;;4.42;66.93;93355.81;5054556;28;19916;-72
2020/12/12 03:29:39;;;;;;;;;;;;;;;4.49;67.03;93357.97;5053025;28;20374;-73
2020/12/12 03:32:08;;;;;;;;;;;;;;;4.57;66.61;93357.22;5053886;28;19917;-72
2020/12/12 03:34:34;;;;;;;;;;;;;;;4.62;66.52;93357.06;5054347;28;19956;-72
2020/12/12 03:36:59;;;;;;;;;;;;;;;4.68;66.17;93353.19;5054467;28;19983;-71
2020/12/12 03:39:24;;;;;;;;;;;;;;;4.35;65.94;93302.81;5054102;28;19948;-72
2020/12/12 03:41:50;;;;;;;;;;;;;;;4.70;65.73;93359.69;5052772;28;19917;-73
2020/12/12 03:44:15;;;;;;;;;;;;;;;4.73;65.58;93357.53;5054155;28;19917;-70
2020/12/12 03:46:40;;;;;;;;;;;;;;;4.75;65.47;93360.59;5052842;28;19921;-71
2020/12/12 03:49:05;;;;;;;;;;;;;;;4.73;65.58;93354.88;5053843;28;19925;-73
2020/12/12 03:51:30;;;;;;;;;;;;;;;4.70;65.57;93358.91;5054167;28;20273;-72
2020/12/12 03:53:56;;;;;;;;;;;;;;;4.68;65.66;93355.81;5053793;28;19921;-70
2020/12/12 03:56:21;;;;;;;;;;;;;;;4.63;65.70;93354.09;5053955;28;20366;-72
2020/12/12 03:58:46;;;;;;;;;;;;;;;4.42;65.36;93359.22;5052301;28;20615;-72
2020/12/12 04:01:11;;;;;;;;;;;;;;;4.37;66.17;93358.59;5053679;28;20278;-72
2020/12/12 04:03:37;;;;;;;;;;;;;;;4.46;66.30;93356.75;5053412;28;19920;-71
2020/12/12 04:06:02;;;;;;;;;;;;;;;4.55;66.40;93362.78;5053737;28;19917;-72
2020/12/12 04:08:27;;;;;;;;;;;;;;;4.58;66.17;93364.78;5053479;28;19916;-73
2020/12/12 04:10:52;;;;;;;;;;;;;;;4.62;65.97;93355.19;5053727;28;19924;-72
2020/12/12 04:13:18;;;;;;;;;;;;;;;4.61;65.98;93356.28;5053276;28;19917;-71
2020/12/12 04:15:43;;;;;;;;;;;;;;;4.57;65.94;93354.59;5053648;28;20009;-70
2020/12/12 04:18:08;;;;;;;;;;;;;;;4.54;66.08;93363.84;5053433;28;19917;-73
2020/12/12 04:20:34;;;;;;;;;;;;;;;4.59;65.87;93376.88;5053347;28;19927;-71
2020/12/12 04:22:59;;;;;;;;;;;;;;;4.60;65.80;93375.00;5051973;28;20051;-71
2020/12/12 04:25:24;;;;;;;;;;;;;;;4.62;65.76;93368.38;5053438;28;20286;-71
2020/12/12 04:27:49;;;;;;;;;;;;;;;4.68;65.93;93372.38;5053334;28;20373;-71
2020/12/12 04:30:14;;;;;;;;;;;;;;;4.73;65.76;93379.38;5052961;28;20417;-73
2020/12/12 04:32:40;;;;;;;;;;;;;;;4.78;65.68;93381.06;5052599;28;20007;-71
2020/12/12 04:35:05;;;;;;;;;;;;;;;4.78;65.34;93370.53;5051905;28;19926;-71
2020/12/12 04:37:30;;;;;;;;;;;;;;;4.80;65.56;93371.75;5053195;28;20288;-71
2020/12/12 04:39:55;;;;;;;;;;;;;;;4.84;65.19;93374.56;5052735;28;19921;-73
2020/12/12 04:42:21;;;;;;;;;;;;;;;4.82;64.74;93374.88;5052885;28;19988;-74
2020/12/12 04:44:46;;;;;;;;;;;;;;;4.84;64.99;93375.34;5053119;28;19921;-70
2020/12/12 04:47:12;;;;;;;;;;;;;;;4.87;65.31;93371.31;5051687;28;19920;-71
2020/12/12 04:49:37;;;;;;;;;;;;;;;4.82;65.09;93372.25;5052769;28;19919;-74
2020/12/12 04:52:04;;;;;;;;;;;;;;;4.84;65.24;93369.28;5052705;28;20374;-73
2020/12/12 04:54:30;;;;;;;;;;;;;;;4.88;65.23;93368.38;5051358;28;19917;-72
2020/12/12 04:56:57;;;;;;;;;;;;;;;4.92;65.05;93364.03;5052936;28;20513;-71
2020/12/12 04:59:26;;;;;;;;;;;;;;;4.95;64.64;93366.03;5052269;28;19916;-71
2020/12/12 05:01:51;;;;;;;;;;;;;;;4.90;64.51;93360.13;5052167;28;19917;-71
2020/12/12 05:04:16;;;;;;;;;;;;;;;5.01;64.94;93365.88;5051284;28;19990;-74
2020/12/12 05:06:42;;;;;;;;;;;;;;;5.02;64.74;93364.81;5051542;28;19959;-73
2020/12/12 05:09:07;;;;;;;;;;;;;;;5.04;64.52;93371.28;5051111;28;19978;-74
2020/12/12 05:11:34;;;;;;;;;;;;;;;5.05;64.92;93372.06;5052519;28;19913;-73
2020/12/12 05:13:59;;;;;;;;;;;;;;;5.08;64.88;93372.22;5052487;28;19967;-73
2020/12/12 05:16:24;;;;;;;;;;;;;;;5.12;64.53;93369.75;5052401;28;19924;-74
2020/12/12 05:18:50;;;;;;;;;;;;;;;5.13;64.83;93366.78;5052100;28;19916;-73
2020/12/12 05:21:15;;;;;;;;;;;;;;;5.18;64.36;93371.91;5051065;28;20370;-72
2020/12/12 05:23:41;;;;;;;;;;;;;;;5.17;64.17;93370.34;5051049;28;19920;-73
2020/12/12 05:26:06;;;;;;;;;;;;;;;5.08;64.24;93382.75;5052293;28;19921;-73
2020/12/12 05:28:32;;;;;;;;;;;;;;;5.04;64.16;93386.34;5050675;28;20003;-74
2020/12/12 05:30:57;;;;;;;;;;;;;;;5.04;64.58;93387.09;5052125;28;19913;-73
2020/12/12 05:33:24;;;;;;;;;;;;;;;5.03;65.01;93398.72;5050248;28;19959;-73
2020/12/12 05:35:50;;;;;;;;;;;;;;;5.06;64.50;93395.47;5050999;28;20322;-73
2020/12/12 05:38:15;;;;;;;;;;;;;;;4.76;64.63;93401.66;5052030;28;20004;-73
2020/12/12 05:40:48;;;;;;;;;;;;;;;4.62;65.30;93399.19;5051733;28;19923;-73
2020/12/12 05:43:13;;;;;;;;;;;;;;;4.79;65.53;93409.72;5051907;28;19917;-73
2020/12/12 05:45:39;;;;;;;;;;;;;;;4.91;65.31;93414.38;5052196;28;20294;-73
2020/12/12 05:48:05;;;;;;;;;;;;;;;4.65;64.90;93414.38;5050889;28;19917;-74
2020/12/12 05:50:31;;;;;;;;;;;;;;;4.05;66.94;93417.66;5050694;28;19917;-72
2020/12/12 05:52:56;;;;;;;;;;;;;;;3.67;68.84;93414.69;5050494;28;19935;-72
2020/12/12 05:55:31;;;;;;;;;;;;;;;3.65;69.42;93417.63;5052001;28;20412;-74
2020/12/12 05:57:57;;;;;;;;;;;;;;;3.37;70.66;93417.78;5050662;28;19921;-75
2020/12/12 06:00:23;;;;;;;;;;;;;;;3.81;69.96;93423.28;5051734;28;20385;-74
2020/12/12 06:02:52;;;;;;;;;;;;;;;4.01;68.84;93421.97;5050046;28;20409;-72
2020/12/12 06:05:22;;;;;;;;;;;;;;;4.06;67.90;93429.72;5050516;28;19921;-73
2020/12/12 06:07:51;;;;;;;;;;;;;;;3.51;68.77;93388.03;5050569;28;20038;-73
2020/12/12 06:10:17;;;;;;;;;;;;;;;3.89;68.91;93439.09;5051566;28;19964;-73
2020/12/12 06:12:43;;;;;;;;;;;;;;;4.24;68.49;93428.69;5051606;28;19958;-72
2020/12/12 06:15:11;;;;;;;;;;;;;;;4.47;67.88;93429.38;5051706;28;19959;-73
2020/12/12 06:17:57;;;;;;;;;;;;;;;4.66;67.24;93429.88;5051640;28;19990;-74
2020/12/12 06:20:24;;;;;;;;;;;;;;;4.84;66.56;93429.88;5040794;28;19917;-75
2020/12/12 06:22:53;;;;;;;;;;;;;;;4.95;65.73;93433.75;5051639;28;20390;-72
2020/12/12 06:25:20;;;;;;;;;;;;;;;5.02;65.84;93433.31;5051786;28;20012;-74
2020/12/12 06:27:48;;;;;;;;;;;;;;;5.12;65.31;93433.78;5050468;28;19917;-73
2020/12/12 06:30:14;;;;;;;;;;;;;;;5.20;65.36;93438.25;5051275;28;19917;-74
2020/12/12 06:32:40;;;;;;;;;;;;;;;5.01;64.57;93434.38;5049708;28;19970;-72
2020/12/12 06:35:06;;;;;;;;;;;;;;;5.06;65.05;93437.63;5051583;28;20424;-73
2020/12/12 06:37:32;;;;;;;;;;;;;;;5.13;65.36;93445.84;5051569;28;19917;-75
2020/12/12 06:39:58;;;;;;;;;;;;;;;5.02;65.25;93438.59;5051300;28;19917;-74
2020/12/12 06:42:31;;;;;;;;;;;;;;;5.05;65.01;93438.72;5051377;28;19916;-73
2020/12/12 06:44:56;;;;;;;;;;;;;;;5.13;65.25;93445.09;5050246;28;20354;-71
2020/12/12 06:47:40;;;;;;;;;;;;;;;5.17;65.00;93449.44;5051317;28;19919;-70
2020/12/12 06:50:10;;;;;;;;;;;;;;;5.22;65.46;93454.53;5051059;28;20297;-70
2020/12/12 06:52:37;;;;;;;;;;;;;;;5.26;65.32;93459.19;5051738;28;19913;-73
2020/12/12 06:55:05;;;;;;;;;;;;;;;5.30;65.41;93457.47;5055127;28;19975;-70
2020/12/12 06:57:34;;;;;;;;;;;;;;;5.35;64.96;93459.94;5054728;28;20011;-72
2020/12/12 06:59:59;;;;;;;;;;;;;;;5.40;64.55;93467.69;5054541;28;19992;-69
2020/12/12 07:02:25;;;;;;;;;;;;;;;5.43;64.80;93467.09;5054090;28;19925;-71
2020/12/12 07:04:50;;;;;;;;;;;;;;;5.44;64.33;93463.38;5053562;28;19916;-69
2020/12/12 07:07:16;;;;;;;;;;;;;;;5.46;64.11;93469.84;5054854;28;19939;-71
2020/12/12 07:09:42;;;;;;;;;;;;;;;5.51;64.17;93476.06;5054381;28;19924;-69
2020/12/12 07:12:07;;;;;;;;;;;;;;;5.51;63.97;93484.75;5054645;28;19979;-71
2020/12/12 07:14:34;;;;;;;;;;;;;;;5.56;64.69;93487.22;5054766;28;20015;-71
2020/12/12 07:17:00;;;;;;;;;;;;;;;5.59;64.48;93478.69;5054757;28;20427;-72
2020/12/12 07:19:38;;;;;;;;;;;;;;;5.63;64.21;93484.91;5054396;28;19917;-71
2020/12/12 07:22:11;;;;;;;;;;;;;;;5.69;63.99;93488.94;5054505;28;20003;-70
2020/12/12 07:24:36;;;;;;;;;;;;;;;5.76;63.98;93490.31;5054227;28;19917;-71
2020/12/12 07:27:02;;;;;;;;;;;;;;;5.81;63.78;93488.28;5054585;28;19923;-70
2020/12/12 07:29:28;;;;;;;;;;;;;;;5.86;63.37;93495.25;5054064;28;19916;-71
2020/12/12 07:31:53;;;;;;;;;;;;;;;5.96;63.07;93487.03;5053713;28;19924;-71
2020/12/12 07:34:19;;;;;;;;;;;;;;;6.05;62.67;93489.66;5054076;28;19974;-71
2020/12/12 07:36:44;;;;;;;;;;;;;;;6.10;62.60;93492.13;5054413;28;19916;-71
2020/12/12 07:39:10;;;;;;;;;;;;;;;6.09;62.69;93496.63;5053904;28;19917;-70
2020/12/12 07:41:45;;;;;;;;;;;;;;;6.17;62.79;93495.81;5053956;28;20364;-71
2020/12/12 07:44:12;;;;;;;;;;;;;;;6.20;62.38;93497.84;5052865;28;19999;-71
2020/12/12 07:46:41;;;;;;;;;;;;;;;6.25;62.49;93489.75;5054105;28;19924;-71
2020/12/12 07:49:06;;;;;;;;;;;;;;;6.31;62.64;93502.78;5053704;28;20289;-71
2020/12/12 07:51:32;;;;;;;;;;;;;;;6.36;62.58;93499.97;5053683;28;19921;-69
2020/12/12 07:53:57;;;;;;;;;;;;;;;6.40;63.00;93503.50;5053756;28;20321;-69
2020/12/12 07:56:24;;;;;;;;;;;;;;;6.43;62.00;93508.91;5052597;28;19917;-70
2020/12/12 07:58:56;;;;;;;;;;;;;;;6.40;62.42;93506.16;5053569;28;19952;-73
2020/12/12 08:01:25;;;;;;;;;;;;;;;6.46;62.09;93516.22;5053614;28;19923;-75
2020/12/12 08:03:50;;;;;;;;;;;;;;;6.51;62.67;93520.56;5051876;28;19921;-74
2020/12/12 08:06:15;;;;;;;;;;;;;;;6.52;62.08;93519.47;5053842;28;19917;-72
2020/12/12 08:08:41;;;;;;;;;;;;;;;6.56;62.45;93523.03;5053413;28;19964;-71
2020/12/12 08:11:06;;;;;;;;;;;;;;;6.59;61.66;93521.59;5052781;28;19928;-71
2020/12/12 08:13:33;;;;;;;;;;;;;;;6.61;61.70;93525.47;5052270;28;19916;-71
2020/12/12 08:16:01;;;;;;;;;;;;;;;6.67;61.46;93515.50;5053537;28;19917;-72
2020/12/12 08:18:26;;;;;;;;;;;;;;;6.70;62.06;93514.84;5053349;28;19917;-77
2020/12/12 08:20:52;;;;;;;;;;;;;;;6.74;61.42;93521.84;5052966;28;20382;-73
2020/12/12 08:23:18;;;;;;;;;;;;;;;6.78;61.56;93525.38;5051890;28;19917;-72
2020/12/12 08:25:44;;;;;;;;;;;;;;;6.78;61.58;93543.13;5052337;28;19920;-74
2020/12/12 08:28:10;;;;;;;;;;;;;;;6.81;61.55;93546.97;5053331;28;19920;-75
2020/12/12 08:30:35;;;;;;;;;;;;;;;6.84;62.25;93541.84;5053725;28;19963;-72
2020/12/12 08:33:10;;;;;;;;;;;;;;;6.88;62.24;93544.63;5053618;28;19952;-76
2020/12/12 08:35:35;;;;;;;;;;;;;;;6.93;61.37;93549.72;5052431;28;19917;-73
2020/12/12 08:38:06;;;;;;;;;;;;;;;6.96;62.14;93541.94;5053294;28;20035;-69
2020/12/12 08:40:43;;;;;;;;;;;;;;;7.00;61.81;93547.34;5052204;28;19917;-78
2020/12/12 08:43:09;;;;;;;;;;;;;;;7.03;61.81;93549.38;5053458;28;19971;-78
2020/12/12 08:45:36;;;;;;;;;;;;;;;7.04;62.01;93551.69;5053934;28;19931;-82
2020/12/12 08:48:07;;;;;;;;;;;;;;;7.07;62.07;93554.78;5053634;28;19963;-80
2020/12/12 08:50:56;;;;;;;;;;;;;;;7.07;61.20;93560.09;5052525;28;20289;-80
2020/12/12 08:53:23;;;;;;;;;;;;;;;7.09;62.03;93561.31;5052152;28;20020;-82
2020/12/12 08:56:01;;;;;;;;;;;;;;;7.04;61.43;93556.19;5053425;28;19917;-75
2020/12/12 08:58:33;;;;;;;;;;;;;;;7.05;61.74;93552.44;5053677;28;19925;-81
2020/12/12 09:01:15;;;;;;;;;;;;;;;7.12;61.82;93563.31;5052859;28;19982;-74
2020/12/12 09:04:17;;;;;;;;;;;;;;;7.16;61.18;93561.56;5057399;28;19963;-78
2020/12/12 09:06:42;;;;;;;;;;;;;;;7.24;61.50;93568.69;5041575;28;19982;-78
2020/12/12 09:09:14;;;;;;;;;;;;;;;7.30;61.08;93566.63;5051252;28;20374;-76
2020/12/12 09:11:48;;;;;;;;;;;;;;;7.39;61.48;93571.84;5052434;28;19917;-78
2020/12/12 09:14:14;;;;;;;;;;;;;;;7.42;60.80;93582.59;5052570;28;19916;-71
2020/12/12 09:16:45;;;;;;;;;;;;;;;7.43;61.50;93573.53;5051803;28;20352;-76
2020/12/12 09:19:11;;;;;;;;;;;;;;;7.52;60.55;93571.63;5052121;28;19921;-73
2020/12/12 09:21:36;;;;;;;;;;;;;;;7.61;60.74;93573.41;5052400;28;19974;-70
2020/12/12 09:24:02;;;;;;;;;;;;;;;7.74;61.16;93572.38;5052421;28;19920;-66
2020/12/12 09:26:27;;;;;;;;;;;;;;;7.79;61.15;93570.31;5052384;28;20365;-69
2020/12/12 09:28:52;;;;;;;;;;;;;;;7.85;60.58;93572.75;5051944;28;20393;-70
2020/12/12 09:31:19;;;;;;;;;;;;;;;7.98;60.33;93577.00;5052112;28;19916;-74
2020/12/12 09:33:44;;;;;;;;;;;;;;;8.08;60.07;93579.25;5051917;28;19924;-75
2020/12/12 09:36:11;;;;;;;;;;;;;;;8.22;59.79;93573.66;5050549;28;20277;-70
2020/12/12 09:38:36;;;;;;;;;;;;;;;8.31;59.39;93580.44;5051810;28;19974;-70
2020/12/12 09:41:02;;;;;;;;;;;;;;;8.44;59.47;93593.72;5050624;28;19917;-69
2020/12/12 09:43:27;;;;;;;;;;;;;;;6.83;62.43;93600.31;5051670;28;20285;-68
2020/12/12 09:45:52;;;;;;;;;;;;;;;7.09;61.78;93597.53;5051745;28;19923;-69
2020/12/12 09:48:17;;;;;;;;;;;;;;;7.41;61.20;93599.53;5050146;28;19923;-68
2020/12/12 09:50:43;;;;;;;;;;;;;;;7.91;60.85;93593.41;5051601;28;19917;-71
2020/12/12 09:53:09;;;;;;;;;;;;;;;8.16;59.77;93604.88;5050217;28;19924;-68
2020/12/12 09:55:35;;;;;;;;;;;;;;;8.33;59.30;93602.06;5051672;28;19916;-67
2020/12/12 09:58:01;;;;;;;;;;;;;;;8.43;58.95;93603.56;5051662;28;19917;-72
2020/12/12 10:00:26;;;;;;;;;;;;;;;8.52;58.52;93598.94;5051429;28;19921;-70
2020/12/12 10:02:52;;;;;;;;;;;;;;;8.57;57.80;93603.25;5051312;28;19917;-65
2020/12/12 10:05:18;;;;;;;;;;;;;;;8.59;57.96;93593.09;5051716;28;19927;-67
2020/12/12 10:07:44;;;;;;;;;;;;;;;8.46;57.95;93589.66;5051770;28;19927;-67
2020/12/12 10:10:09;;;;;;;;;;;;;;;8.31;58.55;93593.69;5051459;28;19917;-67
2020/12/12 10:12:34;;;;;;;;;;;;;;;8.15;59.30;93590.09;5051561;28;19923;-66
2020/12/12 10:15:00;;;;;;;;;;;;;;;8.01;60.45;93586.94;5050191;28;19917;-67
2020/12/12 10:17:25;;;;;;;;;;;;;;;7.81;60.33;93586.63;5051591;28;20374;-68
2020/12/12 10:19:50;;;;;;;;;;;;;;;7.34;61.86;93604.56;5051477;28;19916;-67
2020/12/12 10:22:15;;;;;;;;;;;;;;;5.13;71.33;93619.81;5050136;28;19917;-67
2020/12/12 10:24:41;;;;;;;;;;;;;;;5.94;69.98;93619.31;5051603;28;19917;-68
2020/12/12 10:27:06;;;;;;;;;;;;;;;5.93;70.06;93627.50;5052873;28;19920;-67
2020/12/12 10:29:31;;;;;;;;;;;;;;;6.33;70.87;93614.13;5053875;28;20294;-67
2020/12/12 10:31:56;;;;;;;;;;;;;;;6.99;71.04;93607.38;5054688;28;19920;-68
2020/12/12 10:34:22;;;;;;;;;;;;;;;7.50;69.74;93604.78;5055312;28;19916;-68
2020/12/12 10:36:47;;;;;;;;;;;;;;;7.90;68.29;93599.03;5053938;28;19918;-68
2020/12/12 10:39:12;;;;;;;;;;;;;;;8.17;66.58;93605.66;5053447;28;19917;-72
2020/12/12 10:41:37;;;;;;;;;;;;;;;8.28;65.49;93598.84;5053723;28;19916;-68
2020/12/12 10:44:03;;;;;;;;;;;;;;;8.39;64.69;93599.22;5054023;28;19917;-68
2020/12/12 10:46:28;;;;;;;;;;;;;;;8.44;64.34;93599.81;5053872;28;19916;-68
2020/12/12 10:48:53;;;;;;;;;;;;;;;8.45;63.58;93593.41;5053534;28;19967;-69
2020/12/12 10:51:18;;;;;;;;;;;;;;;8.50;63.45;93608.34;5054856;28;20003;-67
2020/12/12 10:53:45;;;;;;;;;;;;;;;8.59;62.75;93604.47;5053660;28;19917;-69
2020/12/12 10:56:10;;;;;;;;;;;;;;;8.82;62.37;93612.81;5053476;28;19921;-68
2020/12/12 10:58:35;;;;;;;;;;;;;;;9.06;62.04;93611.31;5053182;28;19955;-67
2020/12/12 11:01:01;;;;;;;;;;;;;;;9.41;62.20;93618.78;5053519;28;19917;-66
2020/12/12 11:03:26;;;;;;;;;;;;;;;9.67;60.77;93615.78;5053977;28;19920;-66
2020/12/12 11:05:51;;;;;;;;;;;;;;;9.79;59.46;93623.72;5054857;28;20054;-67
2020/12/12 11:08:17;;;;;;;;;;;;;;;8.67;59.84;93634.66;5054455;28;19955;-66
2020/12/12 11:10:42;;;;;;;;;;;;;;;8.19;62.24;93640.53;5054768;28;20370;-67
2020/12/12 11:13:07;;;;;;;;;;;;;;;7.25;65.31;93638.22;5053138;28;19982;-67
2020/12/12 11:15:32;;;;;;;;;;;;;;;8.23;62.90;93642.19;5054465;28;20019;-66
2020/12/12 11:17:59;;;;;;;;;;;;;;;7.64;63.16;93645.00;5054627;28;20388;-66
2020/12/12 11:20:25;;;;;;;;;;;;;;;8.32;62.33;93640.25;5054058;28;19936;-68
2020/12/12 11:22:51;;;;;;;;;;;;;;;7.52;63.72;93650.19;5054115;28;20356;-67
2020/12/12 11:25:16;;;;;;;;;;;;;;;8.33;63.03;93648.97;5054336;28;19947;-68
2020/12/12 11:27:44;;;;;;;;;;;;;;;8.31;63.56;93648.53;5052739;28;20470;-68
2020/12/12 11:30:11;;;;;;;;;;;;;;;8.03;63.30;93650.94;5053934;28;19924;-68
2020/12/12 11:32:37;;;;;;;;;;;;;;;7.81;63.95;93647.50;5053541;28;19921;-68
2020/12/12 11:35:12;;;;;;;;;;;;;;;8.20;63.22;93642.88;5054143;28;19924;-67
2020/12/12 11:40:30;;;;;;;;;;;;;;;9.46;60.86;93643.22;5053409;28;19923;-66
2020/12/12 11:48:04;;;;;;;;;;;;;;;8.99;58.96;93645.53;5053951;28;19917;-69
2020/12/12 11:50:30;;;;;;;;;;;;;;;9.79;58.74;93637.00;5053647;28;19956;-68
2020/12/12 11:52:56;;;;;;;;;;;;;;;9.98;58.72;93633.75;5052425;28;20015;-66
2020/12/12 11:55:22;;;;;;;;;;;;;;;10.26;59.22;93641.78;5053578;28;19917;-66
2020/12/12 11:57:47;;;;;;;;;;;;;;;10.38;59.06;93644.38;5052126;28;20310;-66
2020/12/12 12:00:13;;;;;;;;;;;;;;;10.51;57.75;93645.88;5052055;28;19921;-67
2020/12/12 12:02:40;;;;;;;;;;;;;;;10.45;56.38;93654.44;5051580;28;20234;-67
2020/12/12 12:05:05;;;;;;;;;;;;;;;10.36;56.42;93657.25;5052370;28;19987;-67
2020/12/12 12:07:31;;;;;;;;;;;;;;;10.08;57.91;93652.66;5052154;28;20386;-67
2020/12/12 12:12:56;;;;;;;;;;;;;;;9.72;60.08;93666.75;5041067;28;19924;-67
2020/12/12 12:15:22;;;;;;;;;;;;;;;8.60;62.43;93674.19;5052073;28;20278;-67
2020/12/12 12:17:47;;;;;;;;;;;;;;;9.41;61.00;93672.63;5053333;28;19917;-67
2020/12/12 12:20:12;;;;;;;;;;;;;;;9.52;61.04;93675.63;5052767;28;19913;-66
2020/12/12 12:22:37;;;;;;;;;;;;;;;8.96;62.29;93670.06;5052950;28;19924;-67
2020/12/12 12:25:05;;;;;;;;;;;;;;;8.84;63.23;93676.09;5051509;28;19913;-65
2020/12/12 12:27:30;;;;;;;;;;;;;;;9.12;62.39;93676.28;5053374;28;20404;-67
2020/12/12 12:29:56;;;;;;;;;;;;;;;9.45;62.69;93681.50;5051502;28;19917;-68
2020/12/12 12:32:21;;;;;;;;;;;;;;;9.70;62.71;93679.59;5051620;28;19913;-69
2020/12/12 12:34:46;;;;;;;;;;;;;;;9.70;61.90;93689.44;5052941;28;20406;-69
2020/12/12 12:37:11;;;;;;;;;;;;;;;9.81;62.35;93687.88;5053308;28;19923;-76
2020/12/12 12:39:37;;;;;;;;;;;;;;;9.92;63.09;93685.56;5052831;28;20248;-74
2020/12/12 12:42:04;;;;;;;;;;;;;;;7.91;67.54;93698.53;5053800;28;20381;-69
2020/12/12 12:44:30;;;;;;;;;;;;;;;7.77;68.99;93698.78;5051870;28;19924;-70
2020/12/12 12:46:55;;;;;;;;;;;;;;;7.97;69.67;93702.53;5051829;28;19924;-66
2020/12/12 12:49:20;;;;;;;;;;;;;;;7.66;70.65;93708.19;5051095;28;20294;-65
2020/12/12 12:51:46;;;;;;;;;;;;;;;7.87;70.73;93705.56;5051368;28;19924;-66
2020/12/12 12:54:12;;;;;;;;;;;;;;;7.62;71.35;93712.56;5052047;28;20023;-67
2020/12/12 12:56:38;;;;;;;;;;;;;;;7.65;71.70;93712.69;5050070;28;19928;-67
2020/12/12 12:59:04;;;;;;;;;;;;;;;7.32;71.72;93711.75;5051009;28;19925;-66
2020/12/12 13:01:30;;;;;;;;;;;;;;;7.38;72.75;93706.00;5051677;28;20115;-67
2020/12/12 13:03:55;;;;;;;;;;;;;;;7.53;72.24;93712.63;5051547;28;20039;-68